Time,TemperatureF,DewpointF,PressureIn,WindDirection,WindDirectionDegrees,WindSpeedMPH,WindSpeedGustMPH,Humidity,HourlyPrecipIn,Conditions,Clouds,dailyrainin,SolarRadiationWatts/m^2,SoftwareType,DateUTC
2013-02-07 00:00:00,50.8,49.4,30.16,East,96,0.0,0.0,95,0.00,CLR,SKC,0.00,0.0,WeatherDisplay:10.37,2013-02-07 05:00:00,
2013-02-07 00:05:00,50.6,49.2,30.17,East,96,0.0,0.0,95,0.00,CLR,SKC,0.00,0.0,WeatherDisplay:10.37,2013-02-07 05:05:00,
2013-02-07 00:10:00,50.4,49.0,30.17,East,96,0.0,0.0,95,0.00,CLR,SKC,0.00,0.0,WeatherDisplay:10.37,2013-02-07 05:10:00,
2013-02-07 00:15:00,50.3,48.9,30.17,East,96,0.0,0.0,95,0.00,CLR,SKC,0.00,0.0,WeatherDisplay:10.37,2013-02-07 05:15:00,
2013-02-07 00:20:00,50.2,48.8,30.17,East,96,0.0,0.0,95,0.00,CLR,SKC,0.00,0.0,WeatherDisplay:10.37,2013-02-07 05:20:00,
2013-02-07 00:25:00,50.1,48.7,30.17,East,96,0.0,0.0,95,0.00,CLR,SKC,0.00,0.0,WeatherDisplay:10.37,2013-02-07 05:25:00,
2013-02-07 00:30:00,49.9,48.5,30.17,East,96,0.0,0.0,95,0.00,CLR,SKC,0.00,0.0,WeatherDisplay:10.37,2013-02-07 05:30:00,
2013-02-07 00:35:00,49.9,48.5,30.17,East,96,0.0,0.0,95,0.00,CLR,SKC,0.00,0.0,WeatherDisplay:10.37,2013-02-07 05:35:00,
2013-02-07 00:40:00,49.8,48.4,30.16,East,96,0.0,0.0,95,0.00,CLR,SKC,0.00,0.0,WeatherDisplay:10.37,2013-02-07 05:40:00,
2013-02-07 00:45:00,49.7,48.3,30.16,East,96,0.0,0.0,95,0.00,CLR,SKC,0.00,0.0,WeatherDisplay:10.37,2013-02-07 05:45:00,
2013-02-07 00:50:00,49.6,48.2,30.16,East,96,0.0,0.0,95,0.00,CLR,SKC,0.00,0.0,WeatherDisplay:10.37,2013-02-07 05:50:00,
2013-02-07 00:55:00,49.5,48.1,30.16,East,96,0.0,0.0,95,0.00,CLR,SKC,0.00,0.0,WeatherDisplay:10.37,2013-02-07 05:55:00,
2013-02-07 01:01:00,49.5,48.1,30.16,East,96,0.0,0.0,95,0.00,CLR,SKC,0.00,0.0,WeatherDisplay:10.37,2013-02-07 06:01:00,
2013-02-07 01:06:00,49.4,48.0,30.16,East,96,0.0,0.0,95,0.00,CLR,SKC,0.00,0.0,WeatherDisplay:10.37,2013-02-07 06:06:00,
2013-02-07 01:11:00,49.3,47.9,30.16,East,96,0.0,0.0,95,0.00,CLR,SKC,0.00,0.0,WeatherDisplay:10.37,2013-02-07 06:11:00,
2013-02-07 01:16:00,49.2,47.8,30.16,East,96,0.0,0.0,95,0.00,CLR,SKC,0.00,0.0,WeatherDisplay:10.37,2013-02-07 06:16:00,
2013-02-07 01:21:00,49.1,47.7,30.16,East,96,0.0,0.0,95,0.00,CLR,SKC,0.00,0.0,WeatherDisplay:10.37,2013-02-07 06:21:00,
2013-02-07 01:26:00,49.0,47.9,30.16,East,96,0.0,0.0,96,0.00,CLR,SKC,0.00,0.0,WeatherDisplay:10.37,2013-02-07 06:26:00,
2013-02-07 01:31:00,49.2,48.1,30.16,East,96,0.0,0.0,96,0.00,CLR,SKC,0.00,0.0,WeatherDisplay:10.37,2013-02-07 06:31:00,
2013-02-07 01:36:00,49.2,48.1,30.16,East,96,0.0,0.0,96,0.00,CLR,SKC,0.00,0.0,WeatherDisplay:10.37,2013-02-07 06:36:00,
2013-02-07 01:41:00,49.2,48.1,30.16,East,96,0.0,0.0,96,0.00,CLR,SKC,0.00,0.0,WeatherDisplay:10.37,2013-02-07 06:41:00,
2013-02-07 01:46:00,49.2,48.1,30.15,East,96,0.0,0.0,96,0.00,CLR,SKC,0.00,0.0,WeatherDisplay:10.37,2013-02-07 06:46:00,
2013-02-07 01:51:00,49.2,48.1,30.16,East,96,0.0,0.0,96,0.00,CLR,SKC,0.00,0.0,WeatherDisplay:10.37,2013-02-07 06:51:00,
2013-02-07 01:56:00,49.1,48.0,30.16,East,96,0.0,0.0,96,0.00,CLR,SKC,0.00,0.0,WeatherDisplay:10.37,2013-02-07 06:56:00,
2013-02-07 02:01:00,49.0,47.9,30.16,East,96,0.0,0.0,96,0.00,CLR,SKC,0.00,0.0,WeatherDisplay:10.37,2013-02-07 07:01:00,
2013-02-07 02:06:00,49.1,48.0,30.16,East,96,0.0,0.0,96,0.00,CLR,SKC,0.00,0.0,WeatherDisplay:10.37,2013-02-07 07:06:00,
2013-02-07 02:11:00,49.3,48.2,30.16,East,96,0.0,0.0,96,0.00,CLR,SKC,0.00,0.0,WeatherDisplay:10.37,2013-02-07 07:11:00,
2013-02-07 02:16:00,49.4,48.3,30.16,East,96,0.0,0.0,96,0.00,CLR,SKC,0.00,0.0,WeatherDisplay:10.37,2013-02-07 07:16:00,
2013-02-07 02:21:00,49.6,48.5,30.15,East,96,0.0,0.0,96,0.00,CLR,SKC,0.00,0.0,WeatherDisplay:10.37,2013-02-07 07:21:00,
2013-02-07 02:26:00,49.6,48.5,30.16,East,96,0.0,0.0,96,0.00,CLR,SKC,0.00,0.0,WeatherDisplay:10.37,2013-02-07 07:26:00,
2013-02-07 02:31:00,49.4,48.3,30.16,East,96,0.0,0.0,96,0.00,CLR,SKC,0.00,0.0,WeatherDisplay:10.37,2013-02-07 07:31:00,
2013-02-07 02:36:00,49.4,48.3,30.15,East,96,1.2,0.0,96,0.00,CLR,SKC,0.00,0.0,WeatherDisplay:10.37,2013-02-07 07:36:00,
2013-02-07 02:41:00,49.8,48.7,30.15,East,96,0.0,0.0,96,0.00,CLR,SKC,0.00,0.0,WeatherDisplay:10.37,2013-02-07 07:41:00,
2013-02-07 02:46:00,49.9,48.8,30.15,East,96,0.0,0.0,96,0.00,CLR,SKC,0.00,0.0,WeatherDisplay:10.37,2013-02-07 07:46:00,
2013-02-07 02:51:00,49.8,48.7,30.15,East,96,0.0,0.0,96,0.00,CLR,SKC,0.00,0.0,WeatherDisplay:10.37,2013-02-07 07:51:00,
2013-02-07 02:56:00,50.1,49.0,30.15,ENE,76,2.3,2.3,96,0.00,CLR,SKC,0.00,0.0,WeatherDisplay:10.37,2013-02-07 07:56:00,
2013-02-07 03:01:00,50.5,49.7,30.14,ENE,78,1.2,1.2,97,0.00,CLR,SKC,0.00,0.0,WeatherDisplay:10.37,2013-02-07 08:01:00,
2013-02-07 03:06:00,50.7,49.6,30.14,East,88,2.0,2.0,96,0.00,CLR,SKC,0.00,0.0,WeatherDisplay:10.37,2013-02-07 08:06:00,
2013-02-07 03:11:00,50.8,49.7,30.14,East,88,0.0,0.0,96,0.00,CLR,SKC,0.00,0.0,WeatherDisplay:10.37,2013-02-07 08:11:00,
2013-02-07 03:16:00,50.8,49.7,30.14,East,86,0.0,0.0,96,0.00,CLR,SKC,0.00,0.0,WeatherDisplay:10.37,2013-02-07 08:16:00,
2013-02-07 03:21:00,50.7,49.6,30.14,East,84,0.0,0.0,96,0.00,CLR,SKC,0.00,0.0,WeatherDisplay:10.37,2013-02-07 08:21:00,
2013-02-07 03:26:00,50.7,49.6,30.14,ENE,78,0.0,0.0,96,0.00,CLR,SKC,0.00,0.0,WeatherDisplay:10.37,2013-02-07 08:26:00,
2013-02-07 03:31:00,50.7,49.6,30.15,ENE,78,0.0,0.0,96,0.00,CLR,SKC,0.00,0.0,WeatherDisplay:10.37,2013-02-07 08:31:00,
2013-02-07 03:36:00,50.7,49.6,30.15,ENE,78,0.0,0.0,96,0.00,CLR,SKC,0.00,0.0,WeatherDisplay:10.37,2013-02-07 08:36:00,
2013-02-07 03:41:00,50.5,49.4,30.15,ENE,78,0.0,0.0,96,0.00,CLR,SKC,0.00,0.0,WeatherDisplay:10.37,2013-02-07 08:41:00,
2013-02-07 03:46:00,50.3,49.2,30.15,East,79,0.0,0.0,96,0.00,CLR,SKC,0.00,0.0,WeatherDisplay:10.37,2013-02-07 08:46:00,
2013-02-07 03:51:00,50.1,48.7,30.15,East,79,0.0,0.0,95,0.00,CLR,SKC,0.00,0.0,WeatherDisplay:10.37,2013-02-07 08:51:00,
2013-02-07 03:56:00,50.1,49.0,30.15,ENE,78,0.0,0.0,96,0.00,CLR,SKC,0.00,0.0,WeatherDisplay:10.37,2013-02-07 08:56:00,
2013-02-07 04:01:00,50.0,48.9,30.15,ENE,78,0.0,0.0,96,0.00,CLR,SKC,0.00,0.0,WeatherDisplay:10.37,2013-02-07 09:01:00,
2013-02-07 04:06:00,49.9,48.8,30.15,ENE,78,0.0,0.0,96,0.00,CLR,SKC,0.00,0.0,WeatherDisplay:10.37,2013-02-07 09:06:00,
2013-02-07 04:11:00,50.0,48.9,30.15,East,79,0.0,0.0,96,0.00,CLR,SKC,0.00,0.0,WeatherDisplay:10.37,2013-02-07 09:11:00,
2013-02-07 04:16:00,49.9,48.8,30.15,ENE,78,0.0,0.0,96,0.00,CLR,SKC,0.00,0.0,WeatherDisplay:10.37,2013-02-07 09:16:00,
2013-02-07 04:21:00,49.9,48.8,30.15,East,79,0.0,0.0,96,0.00,CLR,SKC,0.00,0.0,WeatherDisplay:10.37,2013-02-07 09:21:00,
2013-02-07 04:26:00,49.8,48.7,30.15,East,79,0.0,0.0,96,0.00,CLR,SKC,0.00,0.0,WeatherDisplay:10.37,2013-02-07 09:26:00,
2013-02-07 04:31:00,49.8,48.7,30.15,ENE,78,0.0,0.0,96,0.00,CLR,SKC,0.00,0.0,WeatherDisplay:10.37,2013-02-07 09:31:00,
2013-02-07 04:36:00,49.7,48.6,30.15,ENE,78,0.0,0.0,96,0.00,CLR,SKC,0.00,0.0,WeatherDisplay:10.37,2013-02-07 09:36:00,
2013-02-07 04:41:00,49.6,48.5,30.15,ENE,78,0.0,0.0,96,0.00,CLR,SKC,0.00,0.0,WeatherDisplay:10.37,2013-02-07 09:41:00,
2013-02-07 04:46:00,49.7,48.6,30.15,ENE,78,0.0,0.0,96,0.00,CLR,SKC,0.00,0.0,WeatherDisplay:10.37,2013-02-07 09:46:00,
2013-02-07 04:51:00,49.5,48.4,30.15,ENE,78,0.0,0.0,96,0.00,CLR,SKC,0.00,0.0,WeatherDisplay:10.37,2013-02-07 09:51:00,
2013-02-07 04:56:00,49.4,48.3,30.15,ENE,78,1.2,0.0,96,0.00,CLR,SKC,0.00,0.0,WeatherDisplay:10.37,2013-02-07 09:56:00,
2013-02-07 05:01:00,49.4,48.3,30.15,ENE,78,0.0,0.0,96,0.00,FEW,SKC,0.00,0.0,WeatherDisplay:10.37,2013-02-07 10:01:00,
2013-02-07 05:06:00,49.5,48.4,30.15,East,79,0.0,0.0,96,0.00,FEW,SKC,0.00,0.0,WeatherDisplay:10.37,2013-02-07 10:06:00,
2013-02-07 05:11:00,49.5,48.4,30.15,ENE,78,0.0,0.0,96,0.00,FEW,SKC,0.00,0.0,WeatherDisplay:10.37,2013-02-07 10:11:00,
2013-02-07 05:16:00,49.6,48.5,30.15,ENE,78,0.0,0.0,96,0.00,FEW,SKC,0.00,0.0,WeatherDisplay:10.37,2013-02-07 10:16:00,
2013-02-07 05:21:00,49.6,48.5,30.15,East,79,2.3,0.0,96,0.00,FEW,SKC,0.00,0.0,WeatherDisplay:10.37,2013-02-07 10:21:00,
2013-02-07 05:26:00,49.7,48.6,30.15,East,79,0.0,0.0,96,0.00,FEW,SKC,0.00,0.0,WeatherDisplay:10.37,2013-02-07 10:26:00,
2013-02-07 05:31:00,49.9,48.8,30.15,East,79,0.0,0.0,96,0.00,FEW,SKC,0.00,0.0,WeatherDisplay:10.37,2013-02-07 10:31:00,
2013-02-07 05:36:00,49.8,48.7,30.15,ENE,68,1.0,0.0,96,0.00,FEW,SKC,0.00,0.0,WeatherDisplay:10.37,2013-02-07 10:36:00,
2013-02-07 05:41:00,49.9,48.8,30.15,ENE,68,0.0,0.0,96,0.00,FEW,SKC,0.00,0.0,WeatherDisplay:10.37,2013-02-07 10:41:00,
2013-02-07 05:47:00,49.9,48.8,30.15,ENE,68,0.0,0.0,96,0.00,FEW,SKC,0.00,0.0,WeatherDisplay:10.37,2013-02-07 10:47:00,
2013-02-07 05:52:00,49.9,48.8,30.15,ENE,68,1.2,1.2,96,0.00,FEW,SKC,0.00,0.0,WeatherDisplay:10.37,2013-02-07 10:52:00,
2013-02-07 05:57:00,50.0,49.2,30.15,ENE,68,0.0,0.0,97,0.00,FEW,SKC,0.00,0.0,WeatherDisplay:10.37,2013-02-07 10:57:00,
2013-02-07 06:02:00,50.3,49.5,30.15,ENE,68,1.2,1.2,97,0.00,SCT,SKC,0.00,0.0,WeatherDisplay:10.37,2013-02-07 11:02:00,
2013-02-07 06:07:00,50.8,50.0,30.15,ENE,58,2.3,2.3,97,0.00,SCT,SKC,0.00,0.0,WeatherDisplay:10.37,2013-02-07 11:07:00,
2013-02-07 06:12:00,51.5,50.7,30.15,NNE,28,3.5,3.5,97,0.00,SCT,SKC,0.00,0.0,WeatherDisplay:10.37,2013-02-07 11:12:00,
2013-02-07 06:17:00,51.9,51.1,30.15,NW,311,3.5,3.5,97,0.00,SCT,SKC,0.00,0.0,WeatherDisplay:10.37,2013-02-07 11:17:00,
2013-02-07 06:22:00,52.1,51.3,30.16,ENE,63,1.2,1.2,97,0.00,SCT,SKC,0.00,0.0,WeatherDisplay:10.37,2013-02-07 11:22:00,
2013-02-07 06:27:00,52.2,51.1,30.16,ENE,69,1.2,1.2,96,0.00,SCT,SKC,0.00,0.0,WeatherDisplay:10.37,2013-02-07 11:27:00,
2013-02-07 06:32:00,52.4,51.6,30.16,ENE,76,2.3,2.3,97,0.00,SCT,SKC,0.00,0.0,WeatherDisplay:10.37,2013-02-07 11:32:00,
2013-02-07 06:37:00,52.5,51.4,30.15,East,94,3.5,3.5,96,0.00,SCT,SKC,0.00,0.0,WeatherDisplay:10.37,2013-02-07 11:37:00,
2013-02-07 06:42:00,52.6,51.5,30.15,East,80,3.5,3.5,96,0.00,SCT,SKC,0.00,0.0,WeatherDisplay:10.37,2013-02-07 11:42:00,
2013-02-07 06:47:00,52.6,51.5,30.15,ENE,78,5.0,5.0,96,0.00,SCT,SKC,0.00,0.0,WeatherDisplay:10.37,2013-02-07 11:47:00,
2013-02-07 06:52:00,52.7,51.6,30.15,East,88,4.6,4.6,96,0.00,SCT,SKC,0.00,0.0,WeatherDisplay:10.37,2013-02-07 11:52:00,
2013-02-07 06:57:00,52.8,51.7,30.16,NE,49,0.0,0.0,96,0.00,SCT,SKC,0.00,0.0,WeatherDisplay:10.37,2013-02-07 11:57:00,
2013-02-07 07:02:00,52.8,51.4,30.16,East,80,2.3,2.3,95,0.00,SCT,SKC,0.00,0.0,WeatherDisplay:10.37,2013-02-07 12:02:00,
2013-02-07 07:07:00,52.8,51.4,30.15,NNW,348,2.3,2.3,95,0.00,SCT,SKC,0.00,0.0,WeatherDisplay:10.37,2013-02-07 12:07:00,
2013-02-07 07:12:00,52.8,51.4,30.15,ENE,71,4.6,4.6,95,0.00,SCT,SKC,0.00,0.0,WeatherDisplay:10.37,2013-02-07 12:12:00,
2013-02-07 07:17:00,52.9,51.5,30.16,East,84,3.5,3.5,95,0.00,SCT,SKC,0.00,0.0,WeatherDisplay:10.37,2013-02-07 12:17:00,
2013-02-07 07:22:00,53.0,51.3,30.16,East,97,3.5,3.5,94,0.00,SCT,SKC,0.00,5.0,WeatherDisplay:10.37,2013-02-07 12:22:00,
2013-02-07 07:27:00,53.1,51.4,30.15,East,85,2.3,2.3,94,0.00,SCT,SKC,0.00,7.0,WeatherDisplay:10.37,2013-02-07 12:27:00,
2013-02-07 07:32:00,53.2,51.5,30.15,East,79,2.3,2.3,94,0.00,SCT,SKC,0.00,14.0,WeatherDisplay:10.37,2013-02-07 12:32:00,
2013-02-07 07:37:00,53.2,51.2,30.15,East,92,2.3,2.3,93,0.00,SCT,SKC,0.00,19.0,WeatherDisplay:10.37,2013-02-07 12:37:00,
2013-02-07 07:42:00,53.3,51.3,30.15,East,101,4.6,4.6,93,0.00,SCT,SKC,0.00,23.0,WeatherDisplay:10.37,2013-02-07 12:42:00,
2013-02-07 07:47:00,53.5,51.5,30.14,NE,40,3.5,3.5,93,0.00,SCT,SKC,0.00,30.0,WeatherDisplay:10.37,2013-02-07 12:47:00,
2013-02-07 07:52:00,53.5,51.5,30.15,East,85,2.3,2.3,93,0.00,SCT,SKC,0.00,40.0,WeatherDisplay:10.37,2013-02-07 12:52:00,
2013-02-07 07:57:00,53.6,51.6,30.15,NE,49,3.5,3.5,93,0.00,SCT,SKC,0.00,42.0,WeatherDisplay:10.37,2013-02-07 12:57:00,
2013-02-07 08:02:00,53.8,51.8,30.15,East,87,3.5,3.5,93,0.00,OVC,SKC,0.00,39.0,WeatherDisplay:10.37,2013-02-07 13:02:00,
2013-02-07 08:07:00,54.0,52.0,30.15,East,93,4.6,4.6,93,0.00,OVC,SKC,0.00,30.0,WeatherDisplay:10.37,2013-02-07 13:07:00,
2013-02-07 08:12:00,54.2,51.9,30.15,East,93,3.5,3.5,92,0.00,OVC,SKC,0.00,39.0,WeatherDisplay:10.37,2013-02-07 13:12:00,
2013-02-07 08:17:00,54.3,52.0,30.15,East,90,2.3,2.3,92,0.00,OVC,SKC,0.00,51.0,WeatherDisplay:10.37,2013-02-07 13:17:00,
2013-02-07 08:22:00,54.4,52.1,30.15,ENE,76,3.5,3.5,92,0.00,OVC,SKC,0.00,39.0,WeatherDisplay:10.37,2013-02-07 13:22:00,
2013-02-07 08:27:00,54.6,52.3,30.15,NW,314,4.6,4.6,92,0.00,OVC,SKC,0.00,42.0,WeatherDisplay:10.37,2013-02-07 13:27:00,
2013-02-07 08:32:00,54.6,52.3,30.15,East,99,3.5,3.5,92,0.00,OVC,SKC,0.00,54.0,WeatherDisplay:10.37,2013-02-07 13:32:00,
2013-02-07 08:37:00,54.8,52.5,30.15,ENE,73,3.5,3.5,92,0.00,OVC,SKC,0.00,62.0,WeatherDisplay:10.37,2013-02-07 13:37:00,
2013-02-07 08:42:00,55.0,52.7,30.15,ENE,78,3.5,3.5,92,0.00,OVC,SKC,0.00,60.0,WeatherDisplay:10.37,2013-02-07 13:42:00,
2013-02-07 08:47:00,55.2,52.9,30.15,ENE,66,3.5,3.5,92,0.00,OVC,SKC,0.00,53.0,WeatherDisplay:10.37,2013-02-07 13:47:00,
2013-02-07 08:52:00,55.4,53.1,30.15,ENE,69,4.6,4.6,92,0.00,OVC,SKC,0.00,67.0,WeatherDisplay:10.37,2013-02-07 13:52:00,
2013-02-07 08:57:00,55.7,53.4,30.15,North,350,3.5,3.5,92,0.00,OVC,SKC,0.00,67.0,WeatherDisplay:10.37,2013-02-07 13:57:00,
2013-02-07 09:02:00,55.9,53.3,30.15,East,98,3.0,3.0,91,0.00,OVC,SKC,0.00,63.0,WeatherDisplay:10.37,2013-02-07 14:02:00,
2013-02-07 09:07:00,56.0,53.4,30.15,East,97,7.0,7.0,91,0.00,OVC,SKC,0.00,69.0,WeatherDisplay:10.37,2013-02-07 14:07:00,
2013-02-07 09:12:00,56.2,53.6,30.14,NE,35,5.8,5.8,91,0.00,OVC,SKC,0.00,81.0,WeatherDisplay:10.37,2013-02-07 14:12:00,
2013-02-07 09:17:00,56.4,53.8,30.14,East,93,5.0,5.0,91,0.00,OVC,SKC,0.00,114.0,WeatherDisplay:10.37,2013-02-07 14:17:00,
2013-02-07 09:22:00,56.6,54.0,30.14,East,94,3.5,3.5,91,0.00,OVC,SKC,0.00,109.0,WeatherDisplay:10.37,2013-02-07 14:22:00,
2013-02-07 09:27:00,56.8,54.2,30.14,ENE,76,5.8,5.8,91,0.00,OVC,SKC,0.00,111.0,WeatherDisplay:10.37,2013-02-07 14:27:00,
2013-02-07 09:32:00,56.9,54.3,30.14,East,80,8.1,8.1,91,0.00,OVC,SKC,0.00,132.0,WeatherDisplay:10.37,2013-02-07 14:32:00,
2013-02-07 09:37:00,57.2,54.6,30.14,SE,125,5.8,5.8,91,0.00,OVC,SKC,0.00,134.0,WeatherDisplay:10.37,2013-02-07 14:37:00,
2013-02-07 09:42:00,57.3,54.4,30.14,East,88,3.5,3.5,90,0.00,OVC,SKC,0.00,109.0,WeatherDisplay:10.37,2013-02-07 14:42:00,
2013-02-07 09:47:00,57.3,54.4,30.14,East,98,5.8,5.8,90,0.00,OVC,SKC,0.00,121.0,WeatherDisplay:10.37,2013-02-07 14:47:00,
2013-02-07 09:52:00,57.5,54.6,30.14,NE,34,9.2,9.2,90,0.00,OVC,SKC,0.00,116.0,WeatherDisplay:10.37,2013-02-07 14:52:00,
2013-02-07 09:57:00,57.7,54.8,30.14,East,94,3.5,3.5,90,0.00,OVC,SKC,0.00,137.0,WeatherDisplay:10.37,2013-02-07 14:57:00,
2013-02-07 10:02:00,57.9,55.0,30.13,North,360,9.2,9.2,90,0.00,BKN,SKC,0.00,171.0,WeatherDisplay:10.37,2013-02-07 15:02:00,
2013-02-07 10:07:00,58.2,55.3,30.13,East,96,6.0,6.0,90,0.00,BKN,SKC,0.00,172.0,WeatherDisplay:10.37,2013-02-07 15:07:00,
2013-02-07 10:12:00,58.4,55.5,30.13,ENE,71,10.4,10.4,90,0.00,BKN,SKC,0.00,183.0,WeatherDisplay:10.37,2013-02-07 15:12:00,
2013-02-07 10:18:00,58.7,55.8,30.13,East,92,3.5,3.5,90,0.00,BKN,SKC,0.00,190.0,WeatherDisplay:10.37,2013-02-07 15:18:00,
2013-02-07 10:23:00,59.1,55.9,30.13,ESE,117,4.6,4.6,89,0.00,BKN,SKC,0.00,186.0,WeatherDisplay:10.37,2013-02-07 15:23:00,
2013-02-07 10:28:00,59.5,56.3,30.12,NE,50,3.5,3.5,89,0.00,BKN,SKC,0.00,160.0,WeatherDisplay:10.37,2013-02-07 15:28:00,
2013-02-07 10:33:00,59.8,56.2,30.12,East,92,3.5,3.5,88,0.00,BKN,SKC,0.00,132.0,WeatherDisplay:10.37,2013-02-07 15:33:00,
2013-02-07 10:38:00,59.9,56.3,30.12,ENE,74,8.1,8.1,88,0.00,BKN,SKC,0.00,158.0,WeatherDisplay:10.37,2013-02-07 15:38:00,
2013-02-07 10:43:00,60.2,56.6,30.12,East,98,10.4,10.4,88,0.00,BKN,SKC,0.00,153.0,WeatherDisplay:10.37,2013-02-07 15:43:00,
2013-02-07 10:48:00,60.3,56.4,30.11,ENE,76,5.8,5.8,87,0.00,BKN,SKC,0.00,216.0,WeatherDisplay:10.37,2013-02-07 15:48:00,
2013-02-07 10:53:00,60.7,56.8,30.11,SE,125,8.1,8.1,87,0.00,BKN,SKC,0.00,160.0,WeatherDisplay:10.37,2013-02-07 15:53:00,
2013-02-07 10:58:00,60.7,56.5,30.11,ENE,78,3.5,3.5,86,0.00,BKN,SKC,0.00,123.0,WeatherDisplay:10.37,2013-02-07 15:58:00,
2013-02-07 11:03:00,60.7,56.5,30.11,East,101,6.9,6.9,86,0.00,OVC,SKC,0.00,97.0,WeatherDisplay:10.37,2013-02-07 16:03:00,
2013-02-07 11:08:00,60.6,56.7,30.11,East,92,8.1,8.1,87,0.00,OVC,SKC,0.00,90.0,WeatherDisplay:10.37,2013-02-07 16:08:00,
2013-02-07 11:13:00,60.6,56.7,30.10,ESE,102,4.6,4.6,87,0.00,OVC,SKC,0.00,102.0,WeatherDisplay:10.37,2013-02-07 16:13:00,
2013-02-07 11:18:00,60.7,56.8,30.10,East,86,4.6,4.6,87,0.00,OVC,SKC,0.00,72.0,WeatherDisplay:10.37,2013-02-07 16:18:00,
2013-02-07 11:23:00,60.7,56.8,30.10,ESE,103,8.1,8.1,87,0.00,OVC,SKC,0.00,79.0,WeatherDisplay:10.37,2013-02-07 16:23:00,
2013-02-07 11:28:00,60.8,56.9,30.09,East,82,3.5,3.5,87,0.00,OVC,SKC,0.00,90.0,WeatherDisplay:10.37,2013-02-07 16:28:00,
2013-02-07 11:33:00,60.9,57.0,30.09,East,92,5.0,5.0,87,0.00,OVC,SKC,0.00,93.0,WeatherDisplay:10.37,2013-02-07 16:33:00,
2013-02-07 11:38:00,61.0,56.8,30.09,ESE,105,10.4,10.4,86,0.00,OVC,SKC,0.00,91.0,WeatherDisplay:10.37,2013-02-07 16:38:00,
2013-02-07 11:43:00,61.0,56.8,30.09,East,101,7.0,7.0,86,0.00,OVC,SKC,0.00,62.0,WeatherDisplay:10.37,2013-02-07 16:43:00,
2013-02-07 11:48:00,60.9,57.0,30.08,East,92,4.6,4.6,87,0.00,OVC,SKC,0.00,67.0,WeatherDisplay:10.37,2013-02-07 16:48:00,
2013-02-07 11:53:00,60.6,56.7,30.08,East,98,8.1,8.1,87,0.00,OVC,SKC,0.00,90.0,WeatherDisplay:10.37,2013-02-07 16:53:00,
2013-02-07 11:58:00,60.4,56.8,30.08,East,88,9.2,9.2,88,0.00,OVC,SKC,0.00,74.0,WeatherDisplay:10.37,2013-02-07 16:58:00,
2013-02-07 12:03:00,60.1,56.8,30.08,ENE,77,8.1,8.1,89,0.00,-RA,SKC,0.00,60.0,WeatherDisplay:10.37,2013-02-07 17:03:00,
2013-02-07 12:08:00,59.8,56.9,30.08,East,94,3.5,3.5,90,0.01,-RA,SKC,0.01,39.0,WeatherDisplay:10.37,2013-02-07 17:08:00,
2013-02-07 12:13:00,59.6,56.7,30.08,East,86,5.8,5.8,90,0.01,-RA,SKC,0.01,62.0,WeatherDisplay:10.37,2013-02-07 17:13:00,
2013-02-07 12:18:00,59.5,56.9,30.08,East,99,4.6,4.6,91,0.01,-RA,SKC,0.01,49.0,WeatherDisplay:10.37,2013-02-07 17:18:00,
2013-02-07 12:23:00,59.4,57.1,30.07,East,92,3.5,3.5,92,0.01,-RA,SKC,0.01,56.0,WeatherDisplay:10.37,2013-02-07 17:23:00,
2013-02-07 12:28:00,59.3,57.0,30.07,East,86,3.5,3.5,92,0.01,-RA,SKC,0.01,49.0,WeatherDisplay:10.37,2013-02-07 17:28:00,
2013-02-07 12:33:00,59.1,57.1,30.07,East,92,3.5,3.5,93,0.01,-RA,SKC,0.01,23.0,WeatherDisplay:10.37,2013-02-07 17:33:00,
2013-02-07 12:38:00,58.9,56.9,30.07,East,79,5.0,5.0,93,0.01,-RA,SKC,0.01,54.0,WeatherDisplay:10.37,2013-02-07 17:38:00,
2013-02-07 12:43:00,58.8,56.8,30.07,ESE,105,4.6,4.6,93,0.02,-RA,SKC,0.02,49.0,WeatherDisplay:10.37,2013-02-07 17:43:00,
2013-02-07 12:48:00,58.7,57.0,30.07,ENE,76,1.2,0.0,94,0.02,-RA,SKC,0.02,53.0,WeatherDisplay:10.37,2013-02-07 17:48:00,
2013-02-07 12:53:00,58.7,57.0,30.07,ENE,63,4.6,4.6,94,0.03,-RA,SKC,0.03,58.0,WeatherDisplay:10.37,2013-02-07 17:53:00,
2013-02-07 12:58:00,58.6,56.9,30.06,ENE,76,2.3,2.3,94,0.03,-RA,SKC,0.03,60.0,WeatherDisplay:10.37,2013-02-07 17:58:00,
2013-02-07 13:03:00,58.5,56.8,30.06,ENE,74,4.6,4.6,94,0.04,-RA,SKC,0.04,40.0,WeatherDisplay:10.37,2013-02-07 18:03:00,
2013-02-07 13:08:00,58.4,57.0,30.06,East,90,4.6,4.6,95,0.03,-RA,SKC,0.04,26.0,WeatherDisplay:10.37,2013-02-07 18:08:00,
2013-02-07 13:13:00,58.3,56.9,30.06,East,95,6.9,6.9,95,0.03,-RA,SKC,0.04,28.0,WeatherDisplay:10.37,2013-02-07 18:13:00,
2013-02-07 13:18:00,58.2,56.8,30.06,ESE,111,3.5,3.5,95,0.04,-RA,SKC,0.05,51.0,WeatherDisplay:10.37,2013-02-07 18:18:00,
2013-02-07 13:23:00,58.2,56.8,30.05,ENE,64,4.6,4.6,95,0.04,-RA,SKC,0.05,30.0,WeatherDisplay:10.37,2013-02-07 18:23:00,
2013-02-07 13:28:00,58.1,56.7,30.05,East,89,5.8,5.8,95,0.05,-RA,SKC,0.06,33.0,WeatherDisplay:10.37,2013-02-07 18:28:00,
2013-02-07 13:33:00,58.1,56.7,30.04,ENE,72,1.2,1.2,95,0.05,-RA,SKC,0.06,44.0,WeatherDisplay:10.37,2013-02-07 18:33:00,
2013-02-07 13:38:00,58.1,56.7,30.04,ENE,68,3.5,3.5,95,0.06,-RA,SKC,0.07,49.0,WeatherDisplay:10.37,2013-02-07 18:38:00,
2013-02-07 13:43:00,58.0,56.6,30.04,WNW,289,4.0,4.0,95,0.05,-RA,SKC,0.07,42.0,WeatherDisplay:10.37,2013-02-07 18:43:00,
2013-02-07 13:48:00,57.8,56.7,30.04,ESE,110,3.5,3.5,96,0.06,-RA,SKC,0.08,51.0,WeatherDisplay:10.37,2013-02-07 18:48:00,
2013-02-07 13:53:00,57.7,56.6,30.03,WSW,249,2.3,2.3,96,0.05,-RA,SKC,0.08,53.0,WeatherDisplay:10.37,2013-02-07 18:53:00,
2013-02-07 13:58:00,57.5,56.4,30.02,NNE,12,2.3,2.3,96,0.06,-RA,SKC,0.09,49.0,WeatherDisplay:10.37,2013-02-07 18:58:00,
2013-02-07 14:03:00,57.3,56.2,30.02,NNE,27,3.5,4.0,96,0.05,RA,SKC,0.10,39.0,WeatherDisplay:10.37,2013-02-07 19:03:00,
2013-02-07 14:08:00,57.2,56.1,30.02,North,10,1.2,1.2,96,0.06,RA,SKC,0.10,49.0,WeatherDisplay:10.37,2013-02-07 19:08:00,
2013-02-07 14:13:00,57.2,56.1,30.02,ENE,76,5.8,5.8,96,0.07,RA,SKC,0.11,46.0,WeatherDisplay:10.37,2013-02-07 19:13:00,
2013-02-07 14:18:00,57.1,56.0,30.02,East,86,3.5,3.5,96,0.06,RA,SKC,0.11,42.0,WeatherDisplay:10.37,2013-02-07 19:18:00,
2013-02-07 14:23:00,57.0,55.9,30.02,ENE,76,3.5,3.5,96,0.06,OVC,SKC,0.12,33.0,WeatherDisplay:10.37,2013-02-07 19:23:00,
2013-02-07 14:28:00,57.1,56.0,30.02,ESE,113,4.6,4.6,96,0.06,RA,SKC,0.12,42.0,WeatherDisplay:10.37,2013-02-07 19:28:00,
2013-02-07 14:33:00,57.0,55.9,30.01,NE,41,5.8,5.8,96,0.06,RA,SKC,0.12,54.0,WeatherDisplay:10.37,2013-02-07 19:33:00,
2013-02-07 14:38:00,56.9,55.8,30.00,SE,137,5.8,5.8,96,0.06,RA,SKC,0.13,63.0,WeatherDisplay:10.37,2013-02-07 19:38:00,
2013-02-07 14:44:00,56.8,55.7,30.00,East,80,6.0,6.0,96,0.06,RA,SKC,0.13,46.0,WeatherDisplay:10.37,2013-02-07 19:44:00,
2013-02-07 14:49:00,56.7,55.6,30.00,ENE,57,9.2,9.2,96,0.06,RA,SKC,0.14,76.0,WeatherDisplay:10.37,2013-02-07 19:49:00,
2013-02-07 14:54:00,56.6,55.5,29.99,ENE,61,10.0,10.0,96,0.06,RA,SKC,0.15,88.0,WeatherDisplay:10.37,2013-02-07 19:54:00,
2013-02-07 14:59:00,56.5,55.4,30.00,East,88,3.5,3.5,96,0.06,RA,SKC,0.15,47.0,WeatherDisplay:10.37,2013-02-07 19:59:00,
2013-02-07 15:04:00,56.5,55.4,30.00,NE,40,5.8,5.8,96,0.05,OVC,SKC,0.15,30.0,WeatherDisplay:10.37,2013-02-07 20:04:00,
2013-02-07 15:09:00,56.4,55.3,30.00,East,92,6.9,6.9,96,0.06,RA,SKC,0.16,26.0,WeatherDisplay:10.37,2013-02-07 20:09:00,
2013-02-07 15:14:00,56.4,55.3,30.00,ENE,58,6.9,6.9,96,0.05,RA,SKC,0.16,26.0,WeatherDisplay:10.37,2013-02-07 20:14:00,
2013-02-07 15:19:00,56.3,55.2,29.99,East,85,6.0,6.0,96,0.06,RA,SKC,0.17,12.0,WeatherDisplay:10.37,2013-02-07 20:19:00,
2013-02-07 15:24:00,56.2,55.1,29.99,ENE,62,2.3,2.3,96,0.05,RA,SKC,0.17,12.0,WeatherDisplay:10.37,2013-02-07 20:24:00,
2013-02-07 15:29:00,56.2,55.4,29.99,ENE,65,4.6,4.6,97,0.06,RA,SKC,0.18,18.0,WeatherDisplay:10.37,2013-02-07 20:29:00,
2013-02-07 15:34:00,56.2,55.4,29.99,ESE,105,5.8,5.8,97,0.06,RA,SKC,0.18,12.0,WeatherDisplay:10.37,2013-02-07 20:34:00,
2013-02-07 15:39:00,56.2,55.4,29.98,East,98,4.6,4.6,97,0.06,RA,SKC,0.19,19.0,WeatherDisplay:10.37,2013-02-07 20:39:00,
2013-02-07 15:44:00,56.2,55.4,29.98,NE,53,4.6,4.6,97,0.06,RA,SKC,0.19,21.0,WeatherDisplay:10.37,2013-02-07 20:44:00,
2013-02-07 15:49:00,56.3,55.5,29.98,ENE,69,5.8,5.8,97,0.06,RA,SKC,0.20,25.0,WeatherDisplay:10.37,2013-02-07 20:49:00,
2013-02-07 15:54:00,56.3,55.5,29.97,SE,142,8.1,8.1,97,0.05,RA,SKC,0.20,21.0,WeatherDisplay:10.37,2013-02-07 20:54:00,
2013-02-07 15:59:00,56.2,55.4,29.98,ENE,71,8.1,8.1,97,0.06,RA,SKC,0.21,12.0,WeatherDisplay:10.37,2013-02-07 20:59:00,
2013-02-07 16:04:00,56.2,55.4,29.98,East,98,4.6,4.6,97,0.06,RA,SKC,0.21,14.0,WeatherDisplay:10.37,2013-02-07 21:04:00,
2013-02-07 16:09:00,56.2,55.4,29.97,East,94,5.8,5.8,97,0.06,RA,SKC,0.22,21.0,WeatherDisplay:10.37,2013-02-07 21:09:00,
2013-02-07 16:14:00,56.2,55.4,29.98,East,83,3.5,3.5,97,0.06,RA,SKC,0.22,25.0,WeatherDisplay:10.37,2013-02-07 21:14:00,
2013-02-07 16:19:00,56.2,55.4,29.97,East,92,4.6,4.6,97,0.05,OVC,SKC,0.22,18.0,WeatherDisplay:10.37,2013-02-07 21:19:00,
2013-02-07 16:24:00,56.3,55.5,29.97,ESE,105,4.6,4.6,97,0.05,OVC,SKC,0.22,12.0,WeatherDisplay:10.37,2013-02-07 21:24:00,
2013-02-07 16:29:00,56.3,55.5,29.97,East,96,8.0,8.0,97,0.05,RA,SKC,0.23,14.0,WeatherDisplay:10.37,2013-02-07 21:29:00,
2013-02-07 16:34:00,56.3,55.5,29.96,East,89,3.5,3.5,97,0.05,RA,SKC,0.23,9.0,WeatherDisplay:10.37,2013-02-07 21:34:00,
2013-02-07 16:39:00,56.3,55.5,29.96,East,96,3.5,3.5,97,0.05,RA,SKC,0.24,11.0,WeatherDisplay:10.37,2013-02-07 21:39:00,
2013-02-07 16:44:00,56.3,55.5,29.96,WNW,290,4.6,4.6,97,0.05,RA,SKC,0.24,9.0,WeatherDisplay:10.37,2013-02-07 21:44:00,
2013-02-07 16:49:00,56.3,55.5,29.96,East,96,2.3,2.3,97,0.05,RA,SKC,0.25,14.0,WeatherDisplay:10.37,2013-02-07 21:49:00,
2013-02-07 16:54:00,56.4,55.6,29.95,ESE,107,4.6,4.6,97,0.05,RA,SKC,0.25,14.0,WeatherDisplay:10.37,2013-02-07 21:54:00,
2013-02-07 16:59:00,56.4,55.6,29.95,East,84,3.5,3.5,97,0.05,RA,SKC,0.26,12.0,WeatherDisplay:10.37,2013-02-07 21:59:00,
2013-02-07 17:04:00,56.5,55.7,29.94,NNE,28,2.3,2.3,97,0.05,-RA,SKC,0.26,11.0,WeatherDisplay:10.37,2013-02-07 22:04:00,
2013-02-07 17:09:00,56.5,55.7,29.94,East,92,4.6,4.6,97,0.05,-RA,SKC,0.27,11.0,WeatherDisplay:10.37,2013-02-07 22:09:00,
2013-02-07 17:14:00,56.5,55.7,29.93,East,95,4.6,4.6,97,0.05,-RA,SKC,0.27,9.0,WeatherDisplay:10.37,2013-02-07 22:14:00,
2013-02-07 17:19:00,56.5,55.7,29.93,ENE,59,5.0,5.0,97,0.05,-RA,SKC,0.27,7.0,WeatherDisplay:10.37,2013-02-07 22:19:00,
2013-02-07 17:24:00,56.6,55.8,29.93,East,90,8.1,8.1,97,0.05,-RA,SKC,0.27,7.0,WeatherDisplay:10.37,2013-02-07 22:24:00,
2013-02-07 17:29:00,56.6,55.8,29.93,East,98,5.8,5.8,97,0.05,-RA,SKC,0.28,0.0,WeatherDisplay:10.37,2013-02-07 22:29:00,
2013-02-07 17:34:00,56.6,55.8,29.92,NE,49,4.6,4.6,97,0.05,-RA,SKC,0.28,0.0,WeatherDisplay:10.37,2013-02-07 22:34:00,
2013-02-07 17:39:00,56.6,55.8,29.92,ENE,76,3.5,3.5,97,0.05,-RA,SKC,0.29,0.0,WeatherDisplay:10.37,2013-02-07 22:39:00,
2013-02-07 17:44:00,56.6,55.8,29.92,East,98,4.6,4.6,97,0.05,-RA,SKC,0.29,0.0,WeatherDisplay:10.37,2013-02-07 22:44:00,
2013-02-07 17:49:00,56.6,55.8,29.92,East,92,3.5,3.5,97,0.05,-RA,SKC,0.30,0.0,WeatherDisplay:10.37,2013-02-07 22:49:00,
2013-02-07 17:54:00,56.6,55.8,29.92,NNW,336,3.5,3.5,97,0.05,-RA,SKC,0.31,0.0,WeatherDisplay:10.37,2013-02-07 22:54:00,
2013-02-07 17:59:00,56.5,55.7,29.92,West,269,2.3,2.3,97,0.05,-RA,SKC,0.31,0.0,WeatherDisplay:10.37,2013-02-07 22:59:00,
2013-02-07 18:04:00,56.5,55.7,29.92,East,80,3.5,3.5,97,0.06,-RA,SKC,0.32,0.0,WeatherDisplay:10.37,2013-02-07 23:04:00,
2013-02-07 18:09:00,56.6,55.8,29.92,South,169,0.0,0.0,97,0.05,-RA,SKC,0.32,0.0,WeatherDisplay:10.37,2013-02-07 23:09:00,
2013-02-07 18:14:00,56.6,55.8,29.92,SSW,192,1.2,0.0,97,0.05,-RA,SKC,0.32,0.0,WeatherDisplay:10.37,2013-02-07 23:14:00,
2013-02-07 18:19:00,56.6,55.8,29.92,WSW,257,2.3,0.0,97,0.06,-RA,SKC,0.33,0.0,WeatherDisplay:10.37,2013-02-07 23:19:00,
2013-02-07 18:24:00,56.6,55.8,29.91,NW,321,3.0,3.0,97,0.06,-RA,SKC,0.33,0.0,WeatherDisplay:10.37,2013-02-07 23:24:00,
2013-02-07 18:29:00,56.5,55.7,29.91,North,349,5.8,5.8,97,0.05,-RA,SKC,0.33,0.0,WeatherDisplay:10.37,2013-02-07 23:29:00,
2013-02-07 18:34:00,56.4,55.6,29.91,East,96,5.8,5.8,97,0.06,-RA,SKC,0.34,0.0,WeatherDisplay:10.37,2013-02-07 23:34:00,
2013-02-07 18:39:00,56.4,55.6,29.90,NE,52,8.1,8.1,97,0.06,-RA,SKC,0.35,0.0,WeatherDisplay:10.37,2013-02-07 23:39:00,
2013-02-07 18:44:00,56.4,55.6,29.89,East,79,11.5,11.5,97,0.07,-RA,SKC,0.36,0.0,WeatherDisplay:10.37,2013-02-07 23:44:00,
2013-02-07 18:49:00,56.4,55.6,29.90,NNE,20,3.5,3.5,97,0.06,-RA,SKC,0.36,0.0,WeatherDisplay:10.37,2013-02-07 23:49:00,
2013-02-07 18:54:00,56.5,55.7,29.89,East,86,5.0,5.0,97,0.07,-RA,SKC,0.37,0.0,WeatherDisplay:10.37,2013-02-07 23:54:00,
2013-02-07 18:59:00,56.6,55.8,29.89,ENE,71,5.0,5.0,97,0.07,-RA,SKC,0.38,0.0,WeatherDisplay:10.37,2013-02-07 23:59:00,
2013-02-07 19:04:00,56.7,55.9,29.89,East,80,5.8,5.8,97,0.07,-RA,SKC,0.39,0.0,WeatherDisplay:10.37,2013-02-08 00:04:00,
2013-02-07 19:09:00,56.7,55.9,29.89,ENE,78,9.2,9.2,97,0.07,-RA,SKC,0.39,0.0,WeatherDisplay:10.37,2013-02-08 00:09:00,
2013-02-07 19:14:00,56.7,55.9,29.88,ESE,103,3.5,3.5,97,0.08,-RA,SKC,0.40,0.0,WeatherDisplay:10.37,2013-02-08 00:14:00,
2013-02-07 19:19:00,56.8,56.0,29.88,East,87,3.5,3.5,97,0.08,-RA,SKC,0.41,0.0,WeatherDisplay:10.37,2013-02-08 00:19:00,
2013-02-07 19:24:00,56.7,55.9,29.88,East,101,5.0,5.0,97,0.09,-RA,SKC,0.42,0.0,WeatherDisplay:10.37,2013-02-08 00:24:00,
2013-02-07 19:29:00,56.6,55.8,29.87,East,90,3.5,3.5,97,0.09,-RA,SKC,0.43,0.0,WeatherDisplay:10.37,2013-02-08 00:29:00,
2013-02-07 19:34:00,56.6,55.8,29.87,ESE,123,4.6,4.6,97,0.09,-RA,SKC,0.43,0.0,WeatherDisplay:10.37,2013-02-08 00:34:00,
2013-02-07 19:39:00,56.5,55.7,29.86,East,86,3.5,3.5,97,0.09,-RA,SKC,0.44,0.0,WeatherDisplay:10.37,2013-02-08 00:39:00,
2013-02-07 19:44:00,56.4,55.6,29.86,East,83,6.0,6.0,97,0.08,-RA,SKC,0.44,0.0,WeatherDisplay:10.37,2013-02-08 00:44:00,
2013-02-07 19:50:00,56.4,55.6,29.85,East,100,3.5,3.5,97,0.09,-RA,SKC,0.45,0.0,WeatherDisplay:10.37,2013-02-08 00:50:00,
2013-02-07 19:55:00,56.3,55.5,29.84,ENE,66,3.0,8.0,97,0.00,-RA,SKC,0.46,0.0,WeatherDisplay:10.37,2013-02-08 00:55:00,
2013-02-07 20:00:00,56.3,55.5,29.84,East,94,2.0,9.0,97,0.01,-RA,SKC,0.47,0.0,WeatherDisplay:10.37,2013-02-08 01:00:00,
2013-02-07 20:05:00,56.2,55.4,29.84,East,89,5.0,8.0,97,0.00, +RA,SKC,0.47,0.0,WeatherDisplay:10.37,2013-02-08 01:05:00,
2013-02-07 20:10:00,56.3,55.5,29.84,ESE,114,4.6,4.6,97,0.08, +RA,SKC,0.47,0.0,WeatherDisplay:10.37,2013-02-08 01:10:00,
2013-02-07 20:15:00,56.3,55.5,29.84,East,84,2.3,2.3,97,0.08, +RA,SKC,0.48,0.0,WeatherDisplay:10.37,2013-02-08 01:15:00,
2013-02-07 20:20:00,56.4,55.6,29.84,SE,129,3.5,3.5,97,0.07, +RA,SKC,0.48,0.0,WeatherDisplay:10.37,2013-02-08 01:20:00,
2013-02-07 20:25:00,56.4,55.6,29.85,ENE,65,2.0,6.0,97,0.00, +RA,SKC,0.49,0.0,WeatherDisplay:10.37,2013-02-08 01:25:00,
2013-02-07 20:30:00,56.5,55.7,29.84,ESE,118,2.3,2.3,97,0.08, +RA,SKC,0.50,0.0,WeatherDisplay:10.37,2013-02-08 01:30:00,
2013-02-07 20:35:00,56.4,55.6,29.85,East,88,6.9,6.9,97,0.08, +RA,SKC,0.51,0.0,WeatherDisplay:10.37,2013-02-08 01:35:00,
2013-02-07 20:40:00,56.4,55.6,29.85,NE,44,2.3,2.3,97,0.07, +RA,SKC,0.51,0.0,WeatherDisplay:10.37,2013-02-08 01:40:00,
2013-02-07 20:45:00,56.4,55.6,29.85,NNE,15,1.0,3.0,97,0.01, +RA,SKC,0.52,0.0,WeatherDisplay:10.37,2013-02-08 01:45:00,
2013-02-07 20:50:00,56.4,55.6,29.84,WNW,300,4.6,4.6,97,0.07, +RA,SKC,0.52,0.0,WeatherDisplay:10.37,2013-02-08 01:50:00,
2013-02-07 20:55:00,56.3,55.4,29.83,West,277,1.0,4.0,97,0.00, +RA,SKC,0.52,0.0,WeatherDisplay:10.37,2013-02-08 01:55:00,
2013-02-07 21:00:00,56.1,55.3,29.82,ESE,123,2.3,2.3,97,0.07, +RA,SKC,0.53,0.0,WeatherDisplay:10.37,2013-02-08 02:00:00,
2013-02-07 21:05:00,56.1,55.3,29.82,ESE,104,0.0,6.0,97,0.00,RA,SKC,0.54,0.0,WeatherDisplay:10.37,2013-02-08 02:05:00,
2013-02-07 21:10:00,56.1,55.3,29.82,ENE,72,1.0,3.0,97,0.00,RA,SKC,0.55,0.0,WeatherDisplay:10.37,2013-02-08 02:10:00,
2013-02-07 21:15:00,56.2,55.4,29.83,East,90,2.3,2.3,97,0.07,RA,SKC,0.55,0.0,WeatherDisplay:10.37,2013-02-08 02:15:00,
2013-02-07 21:20:00,56.2,55.4,29.83,ESE,103,1.0,5.0,97,0.00,RA,SKC,0.56,0.0,WeatherDisplay:10.37,2013-02-08 02:20:00,
2013-02-07 21:25:00,56.2,55.4,29.82,East,93,6.0,6.0,97,0.07,RA,SKC,0.56,0.0,WeatherDisplay:10.37,2013-02-08 02:25:00,
2013-02-07 21:30:00,56.3,55.4,29.80,East,85,0.0,6.0,97,0.00,RA,SKC,0.57,0.0,WeatherDisplay:10.37,2013-02-08 02:30:00,
2013-02-07 21:35:00,56.3,55.5,29.81,SW,232,3.5,3.5,97,0.07,RA,SKC,0.58,0.0,WeatherDisplay:10.37,2013-02-08 02:35:00,
2013-02-07 21:40:00,56.3,55.5,29.82,SW,233,0.0,0.0,97,0.08,RA,SKC,0.59,0.0,WeatherDisplay:10.37,2013-02-08 02:40:00,
2013-02-07 21:45:00,56.2,55.6,29.81,ENE,69,3.5,3.5,98,0.08,RA,SKC,0.59,0.0,WeatherDisplay:10.37,2013-02-08 02:45:00,
2013-02-07 21:50:00,56.3,55.7,29.79,ESE,111,6.9,6.9,98,0.08,RA,SKC,0.60,0.0,WeatherDisplay:10.37,2013-02-08 02:50:00,
2013-02-07 21:55:00,56.4,55.8,29.78,ENE,61,5.8,5.8,98,0.08,RA,SKC,0.60,0.0,WeatherDisplay:10.37,2013-02-08 02:55:00,
2013-02-07 22:00:00,56.4,55.8,29.78,East,86,4.6,4.6,98,0.08,RA,SKC,0.61,0.0,WeatherDisplay:10.37,2013-02-08 03:00:00,
2013-02-07 22:05:00,56.5,55.9,29.80,WSW,250,3.5,3.5,98,0.07, +RA,SKC,0.61,0.0,WeatherDisplay:10.37,2013-02-08 03:05:00,
2013-02-07 22:10:00,56.5,55.9,29.78,ENE,64,3.5,3.5,98,0.07, +RA,SKC,0.62,0.0,WeatherDisplay:10.37,2013-02-08 03:10:00,
2013-02-07 22:15:00,56.5,55.9,29.79,West,262,3.5,3.5,98,0.07, +RA,SKC,0.62,0.0,WeatherDisplay:10.37,2013-02-08 03:15:00,
2013-02-07 22:20:00,56.5,55.9,29.78,ENE,69,7.0,7.0,98,0.07, +RA,SKC,0.63,0.0,WeatherDisplay:10.37,2013-02-08 03:20:00,
2013-02-07 22:25:00,56.6,56.0,29.78,West,273,11.5,11.5,98,0.07, +RA,SKC,0.63,0.0,WeatherDisplay:10.37,2013-02-08 03:25:00,
2013-02-07 22:30:00,56.9,56.3,29.78,SSW,213,1.2,1.2,98,0.07, +RA,SKC,0.64,0.0,WeatherDisplay:10.37,2013-02-08 03:30:00,
2013-02-07 22:35:00,57.1,56.5,29.76,ENE,67,2.0,2.0,98,0.06, +RA,SKC,0.64,0.0,WeatherDisplay:10.37,2013-02-08 03:35:00,
2013-02-07 22:40:00,57.1,56.5,29.76,SSE,148,2.3,2.3,98,0.06, +RA,SKC,0.65,0.0,WeatherDisplay:10.37,2013-02-08 03:40:00,
2013-02-07 22:45:00,57.2,56.6,29.75,East,81,2.3,2.3,98,0.07, +RA,SKC,0.66,0.0,WeatherDisplay:10.37,2013-02-08 03:45:00,
2013-02-07 22:50:00,57.2,56.6,29.75,East,90,3.0,3.0,98,0.07, +RA,SKC,0.67,0.0,WeatherDisplay:10.37,2013-02-08 03:50:00,
2013-02-07 22:55:00,57.2,56.6,29.74,East,95,3.5,3.5,98,0.08, +RA,SKC,0.68,0.0,WeatherDisplay:10.37,2013-02-08 03:55:00,
2013-02-07 23:00:00,57.1,56.5,29.73,East,84,3.5,3.5,98,0.07, +RA,SKC,0.68,0.0,WeatherDisplay:10.37,2013-02-08 04:00:00,
2013-02-07 23:05:00,57.1,56.5,29.73,ESE,121,2.3,2.3,98,0.08, +RA,SKC,0.69,0.0,WeatherDisplay:10.37,2013-02-08 04:05:00,
2013-02-07 23:10:00,57.0,56.4,29.73,North,5,2.3,2.3,98,0.08, +RA,SKC,0.70,0.0,WeatherDisplay:10.37,2013-02-08 04:10:00,
2013-02-07 23:15:00,56.9,56.3,29.73,West,275,3.5,3.5,98,0.08, +RA,SKC,0.70,0.0,WeatherDisplay:10.37,2013-02-08 04:15:00,
2013-02-07 23:20:00,56.9,56.3,29.72,NNE,32,1.2,0.0,98,0.08, +RA,SKC,0.71,0.0,WeatherDisplay:10.37,2013-02-08 04:20:00,
2013-02-07 23:25:00,56.9,56.3,29.72,East,91,2.3,2.3,98,0.10, +RA,SKC,0.73,0.0,WeatherDisplay:10.37,2013-02-08 04:25:00,
2013-02-07 23:30:00,56.9,56.3,29.71,ENE,76,1.2,1.2,98,0.09, +RA,SKC,0.73,0.0,WeatherDisplay:10.37,2013-02-08 04:30:00,
2013-02-07 23:35:00,56.9,56.3,29.71,ENE,76,0.0,0.0,98,0.10, +RA,SKC,0.74,0.0,WeatherDisplay:10.37,2013-02-08 04:35:00,
2013-02-07 23:40:00,56.9,56.3,29.71,ENE,76,2.3,2.3,98,0.10, +RA,SKC,0.75,0.0,WeatherDisplay:10.37,2013-02-08 04:40:00,
2013-02-07 23:45:00,56.9,56.3,29.71,ENE,76,1.2,1.2,98,0.09, +RA,SKC,0.75,0.0,WeatherDisplay:10.37,2013-02-08 04:45:00,
2013-02-07 23:50:00,56.9,56.3,29.71,ENE,76,2.3,2.3,98,0.09, +RA,SKC,0.76,0.0,WeatherDisplay:10.37,2013-02-08 04:50:00,
2013-02-07 23:55:00,56.9,56.3,29.71,ENE,76,1.2,0.0,98,0.09, +RA,SKC,0.77,0.0,WeatherDisplay:10.37,2013-02-08 04:55:00,